createdAt,value
2023-10-08T00:00:45.619Z,72.73
2023-10-08T00:03:12.711Z,72.79
2023-10-08T00:05:40.399Z,72.99
2023-10-08T00:08:10.276Z,72.64
2023-10-08T00:10:43.945Z,72.68
2023-10-08T00:13:16.766Z,72.71
2023-10-08T00:15:53.443Z,72.72
2023-10-08T00:18:21.634Z,72.50
2023-10-08T00:20:55.892Z,72.45
2023-10-08T00:23:26.975Z,72.44
2023-10-08T00:25:55.748Z,72.52
2023-10-08T00:28:23.101Z,72.28
2023-10-08T00:30:50.811Z,72.70
2023-10-08T00:33:18.005Z,72.50
2023-10-08T00:35:44.744Z,72.32
2023-10-08T00:38:16.468Z,72.31
2023-10-08T00:40:46.702Z,72.71
2023-10-08T00:43:37.668Z,72.54
2023-10-08T00:46:12.413Z,72.57
2023-10-08T00:48:39.314Z,72.66
2023-10-08T00:51:25.040Z,72.57
2023-10-08T00:54:00.159Z,72.71
2023-10-08T00:56:49.236Z,72.58
2023-10-08T00:59:16.632Z,72.89
2023-10-08T01:01:52.060Z,72.71
2023-10-08T01:04:20.262Z,72.81
2023-10-08T01:06:50.274Z,72.79
2023-10-08T01:09:20.212Z,72.73
2023-10-08T01:11:47.558Z,72.80
2023-10-08T01:14:16.159Z,73.24
2023-10-08T01:16:47.632Z,73.50
2023-10-08T01:19:21.506Z,73.24
2023-10-08T01:21:48.327Z,73.56
2023-10-08T01:24:18.197Z,73.25
2023-10-08T01:26:46.286Z,73.11
2023-10-08T01:29:22.662Z,73.64
2023-10-08T01:31:54.331Z,73.79
2023-10-08T01:34:27.798Z,74.06
2023-10-08T01:36:54.465Z,73.96
2023-10-08T01:39:21.485Z,73.53
2023-10-08T01:41:48.232Z,73.85
2023-10-08T01:44:14.864Z,73.82
2023-10-08T01:46:44.437Z,73.57
2023-10-08T01:49:16.056Z,73.69
2023-10-08T01:51:50.531Z,73.56
2023-10-08T01:54:22.062Z,73.56
2023-10-08T01:56:49.219Z,73.51
2023-10-08T01:59:17.228Z,73.97
2023-10-08T02:01:46.281Z,73.69
2023-10-08T02:04:13.892Z,73.48
2023-10-08T02:06:40.990Z,73.92
2023-10-08T02:09:09.175Z,73.69
2023-10-08T02:11:44.410Z,73.58
2023-10-08T02:14:11.410Z,73.74
2023-10-08T02:16:38.814Z,74.09
2023-10-08T02:19:07.786Z,74.20
2023-10-08T02:21:34.537Z,74.10
2023-10-08T02:24:01.095Z,74.34
2023-10-08T02:26:27.881Z,74.20
2023-10-08T02:28:55.003Z,73.99
2023-10-08T02:31:21.613Z,73.56
2023-10-08T02:33:48.425Z,74.04
2023-10-08T02:36:15.074Z,74.54
2023-10-08T02:38:41.717Z,75.77
2023-10-08T02:41:08.463Z,76.43
2023-10-08T02:43:37.894Z,77.61
2023-10-08T02:46:15.784Z,77.29
2023-10-08T02:48:42.950Z,76.81
2023-10-08T02:51:15.179Z,76.76
2023-10-08T02:53:45.248Z,76.69
2023-10-08T02:56:15.137Z,76.52
2023-10-08T02:58:41.850Z,76.25
2023-10-08T03:01:13.345Z,76.13
2023-10-08T03:03:42.239Z,76.07
2023-10-08T03:06:16.011Z,76.12
2023-10-08T03:08:43.131Z,76.18
2023-10-08T03:11:17.919Z,76.51
2023-10-08T03:13:47.593Z,76.60
2023-10-08T03:16:15.237Z,76.46
2023-10-08T03:18:44.498Z,76.28
2023-10-08T03:21:43.299Z,76.11
2023-10-08T03:24:31.181Z,75.68
2023-10-08T03:27:13.416Z,76.00
2023-10-08T03:29:43.305Z,75.83
2023-10-08T03:32:16.574Z,76.01
2023-10-08T03:34:49.189Z,76.01
2023-10-08T03:37:30.394Z,75.92
2023-10-08T03:40:16.157Z,76.12
2023-10-08T03:42:42.665Z,75.93
2023-10-08T03:45:13.591Z,75.85
2023-10-08T03:47:42.331Z,76.41
2023-10-08T03:50:10.728Z,76.60
2023-10-08T03:52:40.482Z,76.30
2023-10-08T03:55:21.729Z,77.26
2023-10-08T03:57:58.137Z,77.81
2023-10-08T04:00:32.825Z,78.10
2023-10-08T04:03:09.052Z,77.77
2023-10-08T04:06:05.702Z,77.54
2023-10-08T04:08:43.828Z,78.68
2023-10-08T04:11:23.329Z,79.17
2023-10-08T04:13:50.057Z,80.00
2023-10-08T04:16:20.516Z,80.46
2023-10-08T04:18:51.382Z,81.25
2023-10-08T04:21:21.709Z,81.02
2023-10-08T04:23:52.634Z,82.13
2023-10-08T04:26:24.736Z,81.76
2023-10-08T04:28:58.918Z,82.39
2023-10-08T04:31:29.420Z,82.29
2023-10-08T04:34:01.840Z,82.13
2023-10-08T04:36:28.987Z,81.85
2023-10-08T04:38:58.798Z,82.75
2023-10-08T04:41:29.400Z,82.98
2023-10-08T04:43:56.751Z,82.50
2023-10-08T04:46:48.109Z,82.56
2023-10-08T04:49:24.596Z,82.51
2023-10-08T04:51:53.373Z,82.41
2023-10-08T04:54:19.924Z,82.21
2023-10-08T04:56:46.466Z,81.63
2023-10-08T04:59:13.211Z,81.20
2023-10-08T05:01:48.566Z,80.49
2023-10-08T05:04:30.216Z,80.33
2023-10-08T05:07:22.056Z,80.47
2023-10-08T05:09:49.179Z,82.99
2023-10-08T05:12:35.475Z,83.50
2023-10-08T05:15:22.506Z,83.10
2023-10-08T05:17:52.842Z,83.64
2023-10-08T05:20:31.364Z,83.77
2023-10-08T05:23:17.195Z,83.48
2023-10-08T05:25:59.077Z,83.23
2023-10-08T05:28:26.695Z,83.21
2023-10-08T05:31:12.824Z,84.02
2023-10-08T05:33:59.590Z,84.07
2023-10-08T05:36:35.631Z,85.45
2023-10-08T05:39:05.394Z,85.09
2023-10-08T05:41:52.371Z,85.79
2023-10-08T05:44:19.515Z,85.33
2023-10-08T05:46:54.887Z,85.45
2023-10-08T05:49:40.187Z,85.66
2023-10-08T05:52:06.860Z,85.33
2023-10-08T05:54:34.178Z,86.13
2023-10-08T05:57:25.992Z,86.50
2023-10-08T05:59:58.366Z,86.11
2023-10-08T06:02:49.644Z,85.94
2023-10-08T06:05:27.408Z,84.33
2023-10-08T06:07:55.263Z,83.80
2023-10-08T06:10:32.096Z,84.03
2023-10-08T06:13:05.552Z,83.21
2023-10-08T06:15:46.040Z,82.78
2023-10-08T06:18:14.377Z,82.63
2023-10-08T06:20:44.346Z,82.18
2023-10-08T06:23:19.213Z,81.62
2023-10-08T06:25:46.470Z,81.73
2023-10-08T06:28:20.762Z,82.20
2023-10-08T06:30:49.454Z,81.38
2023-10-08T06:33:20.164Z,81.38
2023-10-08T06:36:05.698Z,81.12
2023-10-08T06:38:33.385Z,82.21
2023-10-08T06:41:11.514Z,83.77
2023-10-08T06:43:38.658Z,84.74
2023-10-08T06:46:08.648Z,85.49
2023-10-08T06:48:36.011Z,84.75
2023-10-08T06:51:13.887Z,82.68
2023-10-08T06:53:47.141Z,79.65
2023-10-08T06:56:16.167Z,79.99
2023-10-08T06:58:49.108Z,80.94
2023-10-08T07:01:39.668Z,80.24
2023-10-08T07:04:07.843Z,80.61
2023-10-08T07:06:38.385Z,80.63
2023-10-08T07:09:06.333Z,78.84
2023-10-08T07:11:36.046Z,77.92
2023-10-08T07:14:04.277Z,74.95
2023-10-08T07:16:34.217Z,75.17
2023-10-08T07:19:04.540Z,74.74
2023-10-08T07:21:39.836Z,73.45
2023-10-08T07:24:16.179Z,71.89
2023-10-08T07:26:47.400Z,70.29
2023-10-08T07:29:18.243Z,69.60
2023-10-08T07:31:49.889Z,68.75
2023-10-08T07:34:26.572Z,70.28
2023-10-08T07:36:55.901Z,67.57
2023-10-08T07:39:26.310Z,68.08
2023-10-08T07:41:57.570Z,67.70
2023-10-08T07:44:24.555Z,66.58
2023-10-08T07:46:52.398Z,65.28
2023-10-08T07:49:19.377Z,65.46
2023-10-08T07:51:51.760Z,64.81
2023-10-08T07:54:25.770Z,64.08
2023-10-08T07:56:52.890Z,63.58
2023-10-08T07:59:19.605Z,63.84
2023-10-08T08:01:46.112Z,63.09
2023-10-08T08:04:23.881Z,63.38
2023-10-08T08:06:52.357Z,63.48
2023-10-08T08:09:20.810Z,63.89
2023-10-08T08:11:47.830Z,64.61
2023-10-08T08:14:17.902Z,64.12
2023-10-08T08:16:49.257Z,63.86
2023-10-08T08:19:17.041Z,63.49
2023-10-08T08:21:46.347Z,63.26
2023-10-08T08:24:14.561Z,63.55
2023-10-08T08:26:45.763Z,63.76
2023-10-08T08:29:16.313Z,63.77
2023-10-08T08:31:47.350Z,63.26
2023-10-08T08:34:20.614Z,62.74
2023-10-08T08:36:50.233Z,61.62
2023-10-08T08:39:29.603Z,59.97
2023-10-08T08:42:00.309Z,58.88
2023-10-08T08:44:33.083Z,58.56
2023-10-08T08:47:05.537Z,59.04
2023-10-08T08:49:35.668Z,58.03
2023-10-08T08:52:02.194Z,57.43
2023-10-08T08:54:31.543Z,57.50
2023-10-08T08:57:03.224Z,57.57
2023-10-08T08:59:32.736Z,57.24
2023-10-08T09:02:05.157Z,57.31
2023-10-08T09:04:32.660Z,56.81
2023-10-08T09:07:24.521Z,57.01
2023-10-08T09:09:51.179Z,57.04
2023-10-08T09:12:18.581Z,57.66
2023-10-08T09:14:49.166Z,57.20
2023-10-08T09:17:18.126Z,56.67
2023-10-08T09:19:44.619Z,56.22
2023-10-08T09:22:13.015Z,56.25
2023-10-08T09:24:41.288Z,56.32
2023-10-08T09:27:09.492Z,53.99
2023-10-08T09:29:43.419Z,53.16
2023-10-08T09:32:12.789Z,51.97
2023-10-08T09:34:39.482Z,52.31
2023-10-08T09:37:06.076Z,53.01
2023-10-08T09:39:35.071Z,52.64
2023-10-08T09:42:08.368Z,53.42
2023-10-08T09:44:35.378Z,53.34
2023-10-08T09:47:11.473Z,53.23
2023-10-08T09:49:49.786Z,53.56
2023-10-08T09:52:19.288Z,53.69
2023-10-08T09:54:54.938Z,54.38
2023-10-08T09:57:25.165Z,54.92
2023-10-08T09:59:51.751Z,54.62
2023-10-08T10:02:19.599Z,54.60
2023-10-08T10:04:46.117Z,54.21
2023-10-08T10:07:15.394Z,54.52
2023-10-08T10:09:50.959Z,54.65
2023-10-08T10:12:26.649Z,54.88
2023-10-08T10:14:57.726Z,54.84
2023-10-08T10:17:43.328Z,55.02
2023-10-08T10:20:15.456Z,55.64
2023-10-08T10:22:44.709Z,54.73
2023-10-08T10:25:21.356Z,54.01
2023-10-08T10:27:56.865Z,53.10
2023-10-08T10:30:24.939Z,53.48
2023-10-08T10:32:56.254Z,53.17
2023-10-08T10:35:24.593Z,53.16
2023-10-08T10:37:56.419Z,53.31
2023-10-08T10:40:40.253Z,53.95
2023-10-08T10:43:10.677Z,54.05
2023-10-08T10:45:37.967Z,53.38
2023-10-08T10:48:20.334Z,52.73
2023-10-08T10:51:06.909Z,52.08
2023-10-08T10:53:35.023Z,51.40
2023-10-08T10:56:10.439Z,50.72
2023-10-08T10:58:40.996Z,51.32
2023-10-08T11:01:24.407Z,51.19
2023-10-08T11:03:53.003Z,49.91
2023-10-08T11:06:24.561Z,49.45
2023-10-08T11:08:53.593Z,50.27
2023-10-08T11:11:30.497Z,49.79
2023-10-08T11:14:01.843Z,49.44
2023-10-08T11:16:32.597Z,50.31
2023-10-08T11:19:02.644Z,49.37
2023-10-08T11:21:34.980Z,49.76
2023-10-08T11:24:09.696Z,49.85
2023-10-08T11:26:40.333Z,48.83
2023-10-08T11:29:15.239Z,49.88
2023-10-08T11:31:43.134Z,49.58
2023-10-08T11:34:14.356Z,49.64
2023-10-08T11:36:54.113Z,50.00
2023-10-08T11:39:23.797Z,50.60
2023-10-08T11:41:57.153Z,49.51
2023-10-08T11:44:24.905Z,49.30
2023-10-08T11:46:52.993Z,49.62
2023-10-08T11:49:20.293Z,49.69
2023-10-08T11:51:48.525Z,49.16
2023-10-08T11:54:15.806Z,49.36
2023-10-08T11:56:42.794Z,49.86
2023-10-08T11:59:13.122Z,50.52
2023-10-08T12:01:43.646Z,49.47
2023-10-08T12:04:18.149Z,49.52
2023-10-08T12:06:48.148Z,49.32
2023-10-08T12:09:15.730Z,49.31
2023-10-08T12:11:43.711Z,49.90
2023-10-08T12:14:12.015Z,50.25
2023-10-08T12:16:40.885Z,49.57
2023-10-08T12:19:16.691Z,49.33
2023-10-08T12:21:47.581Z,49.22
2023-10-08T12:24:14.995Z,49.70
2023-10-08T12:26:48.371Z,49.25
2023-10-08T12:29:15.555Z,49.93
2023-10-08T12:31:42.407Z,49.58
2023-10-08T12:34:12.782Z,50.02
2023-10-08T12:36:39.578Z,48.87
2023-10-08T12:39:15.531Z,49.68
2023-10-08T12:41:46.217Z,49.27
2023-10-08T12:44:14.098Z,51.89
2023-10-08T12:46:44.966Z,50.55
2023-10-08T12:49:11.580Z,50.43
2023-10-08T12:51:42.349Z,49.78
2023-10-08T12:54:12.392Z,49.49
2023-10-08T12:56:45.783Z,48.87
2023-10-08T12:59:21.485Z,49.05
2023-10-08T13:01:52.499Z,48.58
2023-10-08T13:04:27.135Z,48.51
2023-10-08T13:06:58.504Z,48.41
2023-10-08T13:09:26.190Z,48.77
2023-10-08T13:11:53.136Z,48.15
2023-10-08T13:14:19.734Z,48.52
2023-10-08T13:16:46.728Z,47.15
2023-10-08T13:19:13.600Z,47.79
2023-10-08T13:21:40.191Z,48.15
2023-10-08T13:24:10.016Z,48.37
2023-10-08T13:26:39.939Z,50.06
2023-10-08T13:29:07.106Z,48.82
2023-10-08T13:31:37.515Z,48.58
2023-10-08T13:34:09.466Z,48.77
2023-10-08T13:36:38.923Z,48.13
2023-10-08T13:39:19.087Z,47.77
2023-10-08T13:41:53.906Z,47.93
2023-10-08T13:44:29.927Z,48.35
2023-10-08T13:46:59.344Z,48.76
2023-10-08T13:49:27.549Z,47.18
2023-10-08T13:51:57.736Z,46.76
2023-10-08T13:54:30.025Z,47.84
2023-10-08T13:56:59.364Z,49.02
2023-10-08T13:59:26.618Z,48.42
2023-10-08T14:01:53.911Z,48.05
2023-10-08T14:04:21.670Z,48.07
2023-10-08T14:06:53.155Z,47.48
2023-10-08T14:09:32.794Z,47.75
2023-10-08T14:12:00.691Z,47.43
2023-10-08T14:14:31.078Z,47.45
2023-10-08T14:17:09.380Z,48.21
2023-10-08T14:19:47.856Z,48.60
2023-10-08T14:22:15.734Z,48.59
2023-10-08T14:24:45.594Z,48.19
2023-10-08T14:27:12.875Z,47.92
2023-10-08T14:29:51.146Z,48.22
2023-10-08T14:32:18.044Z,48.26
2023-10-08T14:34:44.516Z,48.22
2023-10-08T14:37:29.995Z,49.43
2023-10-08T14:40:15.344Z,49.86
2023-10-08T14:42:59.049Z,49.96
2023-10-08T14:45:28.528Z,49.72
2023-10-08T14:47:56.443Z,50.01
2023-10-08T14:50:24.532Z,50.20
2023-10-08T14:52:51.349Z,50.90
2023-10-08T14:55:17.858Z,49.96
2023-10-08T14:57:44.521Z,49.68
2023-10-08T15:00:14.893Z,50.52
2023-10-08T15:02:41.553Z,50.56
2023-10-08T15:05:08.698Z,50.32
2023-10-08T15:07:35.889Z,51.24
2023-10-08T15:10:02.353Z,52.54
2023-10-08T15:12:29.111Z,53.08
2023-10-08T15:14:55.824Z,53.20
2023-10-08T15:17:22.933Z,53.39
2023-10-08T15:19:49.469Z,54.00
2023-10-08T15:22:16.017Z,54.01
2023-10-08T15:24:44.464Z,54.23
2023-10-08T15:27:11.660Z,54.14
2023-10-08T15:29:38.619Z,53.79
2023-10-08T15:32:06.651Z,53.24
2023-10-08T15:34:37.713Z,53.21
2023-10-08T15:37:06.091Z,53.42
2023-10-08T15:39:32.631Z,53.44
2023-10-08T15:41:59.390Z,53.53
2023-10-08T15:44:26.004Z,53.59
2023-10-08T15:46:52.513Z,54.09
2023-10-08T15:49:21.960Z,54.38
2023-10-08T15:51:49.350Z,54.66
2023-10-08T15:54:21.642Z,55.22
2023-10-08T15:56:49.473Z,55.61
2023-10-08T15:59:18.094Z,55.48
2023-10-08T16:01:47.629Z,55.74
2023-10-08T16:04:14.374Z,56.12
2023-10-08T16:06:42.129Z,56.87
2023-10-08T16:09:08.659Z,56.93
2023-10-08T16:11:37.432Z,57.10
2023-10-08T16:14:04.043Z,57.64
2023-10-08T16:16:30.592Z,58.32
2023-10-08T16:18:57.159Z,59.01
2023-10-08T16:21:24.770Z,59.78
2023-10-08T16:23:51.565Z,59.94
2023-10-08T16:26:18.718Z,60.16
2023-10-08T16:28:45.424Z,60.25
2023-10-08T16:31:12.211Z,60.58
2023-10-08T16:33:38.928Z,60.74
2023-10-08T16:36:10.749Z,60.80
2023-10-08T16:38:38.537Z,61.12
2023-10-08T16:41:06.371Z,61.77
2023-10-08T16:43:33.046Z,61.97
2023-10-08T16:46:06.002Z,61.81
2023-10-08T16:48:33.445Z,61.82
2023-10-08T16:51:02.796Z,61.80
2023-10-08T16:53:30.183Z,62.24
2023-10-08T16:55:56.864Z,62.45
2023-10-08T16:58:23.540Z,62.56
2023-10-08T17:00:52.032Z,63.27
2023-10-08T17:03:23.013Z,65.30
2023-10-08T17:05:49.973Z,66.58
2023-10-08T17:08:18.696Z,66.51
2023-10-08T17:10:45.604Z,66.29
2023-10-08T17:13:13.604Z,66.17
2023-10-08T17:15:43.372Z,65.81
2023-10-08T17:18:12.182Z,66.14
2023-10-08T17:20:40.387Z,66.05
2023-10-08T17:23:07.767Z,66.69
2023-10-08T17:25:35.066Z,67.89
2023-10-08T17:28:01.549Z,69.48
2023-10-08T17:30:28.185Z,68.98
2023-10-08T17:32:54.759Z,68.74
2023-10-08T17:35:21.372Z,68.53
2023-10-08T17:37:48.237Z,68.15
2023-10-08T17:40:15.411Z,67.90
2023-10-08T17:42:45.009Z,67.88
2023-10-08T17:45:24.096Z,68.67
2023-10-08T17:47:53.880Z,68.79
2023-10-08T17:50:21.555Z,68.88
2023-10-08T17:52:50.153Z,70.12
2023-10-08T17:55:18.813Z,71.25
2023-10-08T17:57:47.042Z,72.48
2023-10-08T18:00:18.343Z,72.74
2023-10-08T18:02:45.404Z,72.69
2023-10-08T18:05:16.725Z,72.51
2023-10-08T18:07:47.166Z,72.07
2023-10-08T18:10:15.616Z,71.60
2023-10-08T18:12:42.439Z,71.10
2023-10-08T18:15:16.860Z,70.69
2023-10-08T18:17:45.484Z,70.50
2023-10-08T18:20:14.005Z,70.69
2023-10-08T18:22:40.714Z,70.43
2023-10-08T18:25:12.609Z,71.21
2023-10-08T18:27:39.887Z,71.18
2023-10-08T18:30:07.238Z,71.04
2023-10-08T18:32:35.632Z,71.05
2023-10-08T18:35:03.524Z,71.18
2023-10-08T18:37:32.480Z,71.25
2023-10-08T18:39:59.657Z,71.22
2023-10-08T18:42:28.702Z,71.39
2023-10-08T18:44:56.058Z,72.27
2023-10-08T18:47:28.701Z,72.49
2023-10-08T18:50:04.385Z,72.78
2023-10-08T18:52:39.323Z,73.15
2023-10-08T18:55:07.139Z,73.57
2023-10-08T18:57:39.050Z,73.71
2023-10-08T19:00:10.889Z,74.72
2023-10-08T19:02:39.513Z,75.24
2023-10-08T19:05:06.999Z,74.73
2023-10-08T19:07:34.976Z,74.38
2023-10-08T19:10:10.556Z,73.95
2023-10-08T19:12:37.767Z,73.70
2023-10-08T19:15:07.022Z,74.17
2023-10-08T19:17:35.033Z,73.82
2023-10-08T19:20:01.778Z,75.69
2023-10-08T19:22:28.460Z,77.25
2023-10-08T19:24:56.011Z,77.28
2023-10-08T19:27:25.131Z,78.22
2023-10-08T19:29:51.858Z,77.55
2023-10-08T19:32:18.403Z,77.14
2023-10-08T19:34:45.720Z,78.13
2023-10-08T19:37:12.391Z,78.33
2023-10-08T19:39:40.015Z,78.18
2023-10-08T19:42:07.114Z,78.94
2023-10-08T19:44:33.736Z,78.02
2023-10-08T19:47:01.921Z,77.48
2023-10-08T19:49:28.680Z,76.48
2023-10-08T19:51:55.231Z,76.46
2023-10-08T19:54:22.532Z,75.92
2023-10-08T19:56:49.096Z,75.80
2023-10-08T19:59:17.454Z,75.49
2023-10-08T20:01:43.989Z,75.38
2023-10-08T20:04:10.732Z,75.44
2023-10-08T20:06:38.262Z,75.59
2023-10-08T20:09:07.804Z,76.14
2023-10-08T20:11:34.951Z,76.40
2023-10-08T20:14:02.079Z,77.14
2023-10-08T20:16:31.135Z,77.27
2023-10-08T20:18:57.921Z,77.00
2023-10-08T20:21:24.634Z,77.32
2023-10-08T20:23:51.883Z,77.50
2023-10-08T20:26:22.034Z,77.10
2023-10-08T20:28:49.647Z,76.01
2023-10-08T20:31:16.302Z,75.25
2023-10-08T20:33:44.729Z,75.49
2023-10-08T20:36:11.753Z,76.34
2023-10-08T20:38:38.391Z,77.28
2023-10-08T20:41:07.623Z,78.29
2023-10-08T20:43:34.389Z,78.86
2023-10-08T20:46:01.783Z,78.26
2023-10-08T20:48:28.967Z,79.27
2023-10-08T20:50:58.114Z,78.95
2023-10-08T20:53:25.906Z,78.26
2023-10-08T20:55:53.578Z,78.30
2023-10-08T20:58:20.133Z,78.27
2023-10-08T21:00:47.883Z,79.12
2023-10-08T21:03:15.216Z,77.82
2023-10-08T21:05:43.897Z,77.55
2023-10-08T21:08:12.621Z,77.28
2023-10-08T21:10:59.733Z,77.34
2023-10-08T21:13:27.736Z,78.76
2023-10-08T21:15:54.867Z,77.33
2023-10-08T21:18:24.247Z,76.67
2023-10-08T21:20:51.398Z,76.94
2023-10-08T21:23:18.042Z,77.62
2023-10-08T21:25:46.407Z,77.01
2023-10-08T21:28:14.456Z,77.51
2023-10-08T21:30:41.702Z,77.77
2023-10-08T21:33:10.240Z,76.94
2023-10-08T21:35:42.633Z,76.85
2023-10-08T21:38:11.516Z,76.35
2023-10-08T21:40:39.879Z,76.16
2023-10-08T21:43:08.461Z,75.90
2023-10-08T21:45:36.092Z,75.79
2023-10-08T21:48:02.834Z,76.55
2023-10-08T21:50:29.739Z,76.48
2023-10-08T21:52:56.258Z,75.57
2023-10-08T21:55:24.832Z,76.48
2023-10-08T21:57:51.661Z,76.89
2023-10-08T22:00:25.249Z,76.27
2023-10-08T22:02:57.742Z,76.58
2023-10-08T22:05:25.678Z,75.81
2023-10-08T22:07:52.348Z,76.61
2023-10-08T22:10:21.957Z,77.06
2023-10-08T22:12:50.623Z,76.40
2023-10-08T22:15:17.546Z,77.13
2023-10-08T22:17:45.590Z,77.23
2023-10-08T22:20:36.929Z,79.31
2023-10-08T22:23:16.096Z,79.41
2023-10-08T22:25:48.262Z,79.40
2023-10-08T22:28:21.612Z,78.10
2023-10-08T22:30:53.156Z,77.68
2023-10-08T22:33:26.504Z,77.24
2023-10-08T22:35:58.593Z,76.51
2023-10-08T22:38:30.245Z,76.40
2023-10-08T22:41:00.282Z,75.68
2023-10-08T22:43:36.932Z,75.81
2023-10-08T22:46:04.860Z,75.78
2023-10-08T22:48:44.233Z,78.23
2023-10-08T22:51:13.865Z,78.25
2023-10-08T22:53:42.983Z,77.46
2023-10-08T22:56:11.757Z,76.89
2023-10-08T22:58:40.215Z,76.91
2023-10-08T23:01:14.884Z,77.38
2023-10-08T23:03:47.563Z,78.23
2023-10-08T23:06:16.340Z,80.17
2023-10-08T23:08:43.880Z,80.81
2023-10-08T23:11:13.108Z,81.84
2023-10-08T23:13:43.837Z,80.58
2023-10-08T23:16:11.718Z,79.40
2023-10-08T23:18:41.508Z,78.82
2023-10-08T23:21:08.761Z,78.25
2023-10-08T23:23:39.476Z,78.32
2023-10-08T23:26:14.637Z,77.49
2023-10-08T23:28:41.610Z,76.70
2023-10-08T23:31:11.819Z,78.17
2023-10-08T23:33:48.215Z,79.66
2023-10-08T23:36:16.689Z,80.23
2023-10-08T23:38:47.695Z,78.95
2023-10-08T23:41:17.868Z,78.13
2023-10-08T23:43:55.078Z,77.61
2023-10-08T23:46:34.310Z,76.58
2023-10-08T23:49:18.685Z,76.95
2023-10-08T23:51:52.804Z,76.20
2023-10-08T23:54:26.660Z,76.78
2023-10-08T23:56:59.227Z,77.29
2023-10-08T23:59:40.896Z,78.97
